EKBI/BLL METAR and TAF weather

Enter ICAO airport designator
Station Type Date Time Source
EKBI METAR 2019/08/19 11:50 UTC NOAA

EKBI 191150Z 22013G23KT 190V250 9999 FEW022CB BKN027 18/13 Q1009


Station Type Date Time Source
EKBI Decoded METAR 2019/08/19 11:50 UTC NOAA

Station name not available
Aug 19, 2019 - 07:50 AM EDT / 2019.08.19 1150 UTC
Wind: from the SW (220 degrees) at 15 MPH (13 KT) gusting to 26 MPH (23 KT) (direction variable):0
Visibility: greater than 7 mile(s):0
Sky conditions: mostly cloudy
Weather: Cumulonimbus clouds observed
Temperature: 64 F (18 C)
Dew Point: 55 F (13 C)
Relative Humidity: 72%
Pressure (altimeter): 29.80 in. Hg (1009 hPa)
ob: EKBI 191150Z 22013G23KT 190V250 9999 FEW022CB BKN027 18/13 Q1009
cycle: 12

Station Type Date Time Source
EKBI TAF 2019/08/19 12:30 UTC NOAA

TAF EKBI 191102Z 1912/2012 21012KT 9999 SCT030
TEMPO 1912/1919 23015G25KT SHRA SCT020CB PROB40
TEMPO 1912/1917 3000 TSRA
TEMPO 1919/2006 SHRA FEW020CB
TEMPO 2006/2012 SHRA BKN020CB PROB40
TEMPO 2006/2012 3000 TSRA

Example: see airport list